sensor_id;sensor_type;location;lat;lon;timestamp;P1;durP1;ratioP1;P2;durP2;ratioP2
59054;SDS011;44845;51.444;7.460;2023-05-07T00:01:36;3.58;;;2.60;;
59054;SDS011;44845;51.444;7.460;2023-05-07T00:04:01;5.45;;;2.97;;
59054;SDS011;44845;51.444;7.460;2023-05-07T00:06:28;5.15;;;2.78;;
59054;SDS011;44845;51.444;7.460;2023-05-07T00:08:54;2.40;;;2.20;;
59054;SDS011;44845;51.444;7.460;2023-05-07T00:11:19;8.65;;;2.67;;
59054;SDS011;44845;51.444;7.460;2023-05-07T00:13:44;9.55;;;2.88;;
59054;SDS011;44845;51.444;7.460;2023-05-07T00:16:10;6.05;;;2.90;;
59054;SDS011;44845;51.444;7.460;2023-05-07T00:18:35;11.05;;;3.15;;
59054;SDS011;44845;51.444;7.460;2023-05-07T00:21:01;3.80;;;2.80;;
59054;SDS011;44845;51.444;7.460;2023-05-07T00:23:26;7.45;;;3.00;;
59054;SDS011;44845;51.444;7.460;2023-05-07T00:25:51;3.55;;;2.97;;
59054;SDS011;44845;51.444;7.460;2023-05-07T00:28:17;4.68;;;3.25;;
59054;SDS011;44845;51.444;7.460;2023-05-07T00:30:42;5.25;;;3.13;;
59054;SDS011;44845;51.444;7.460;2023-05-07T00:33:07;6.25;;;3.13;;
59054;SDS011;44845;51.444;7.460;2023-05-07T00:35:33;4.28;;;2.78;;
59054;SDS011;44845;51.444;7.460;2023-05-07T00:37:58;6.50;;;3.10;;
59054;SDS011;44845;51.444;7.460;2023-05-07T00:40:23;5.32;;;2.67;;
59054;SDS011;44845;51.444;7.460;2023-05-07T00:42:49;6.07;;;3.10;;
59054;SDS011;44845;51.444;7.460;2023-05-07T00:45:14;7.93;;;2.97;;
59054;SDS011;44845;51.444;7.460;2023-05-07T00:47:42;12.68;;;3.15;;
59054;SDS011;44845;51.444;7.460;2023-05-07T00:50:08;9.93;;;3.03;;
59054;SDS011;44845;51.444;7.460;2023-05-07T00:52:35;4.55;;;3.00;;
59054;SDS011;44845;51.444;7.460;2023-05-07T00:55:04;4.78;;;2.88;;
59054;SDS011;44845;51.444;7.460;2023-05-07T00:57:32;5.20;;;2.97;;
59054;SDS011;44845;51.444;7.460;2023-05-07T01:00:01;2.90;;;2.60;;
59054;SDS011;44845;51.444;7.460;2023-05-07T01:02:28;10.35;;;2.70;;
59054;SDS011;44845;51.444;7.460;2023-05-07T01:04:53;4.68;;;2.95;;
59054;SDS011;44845;51.444;7.460;2023-05-07T01:07:20;4.65;;;3.03;;
59054;SDS011;44845;51.444;7.460;2023-05-07T01:09:45;5.65;;;2.95;;
59054;SDS011;44845;51.444;7.460;2023-05-07T01:12:11;5.47;;;2.90;;
59054;SDS011;44845;51.444;7.460;2023-05-07T01:14:37;7.80;;;2.92;;
59054;SDS011;44845;51.444;7.460;2023-05-07T01:17:02;5.25;;;2.40;;
59054;SDS011;44845;51.444;7.460;2023-05-07T01:19:28;2.58;;;2.30;;
59054;SDS011;44845;51.444;7.460;2023-05-07T01:21:55;4.85;;;2.45;;
59054;SDS011;44845;51.444;7.460;2023-05-07T01:24:28;4.05;;;2.70;;
59054;SDS011;44845;51.444;7.460;2023-05-07T01:26:54;3.97;;;2.40;;
59054;SDS011;44845;51.444;7.460;2023-05-07T01:29:20;11.57;;;2.65;;
59054;SDS011;44845;51.444;7.460;2023-05-07T01:31:45;5.78;;;2.88;;
59054;SDS011;44845;51.444;7.460;2023-05-07T01:34:12;7.75;;;2.53;;
59054;SDS011;44845;51.444;7.460;2023-05-07T01:36:42;4.78;;;2.05;;
59054;SDS011;44845;51.444;7.460;2023-05-07T01:39:08;6.75;;;2.70;;
59054;SDS011;44845;51.444;7.460;2023-05-07T01:41:37;5.82;;;2.42;;
59054;SDS011;44845;51.444;7.460;2023-05-07T01:44:02;3.40;;;2.10;;
59054;SDS011;44845;51.444;7.460;2023-05-07T01:46:28;8.93;;;2.50;;
59054;SDS011;44845;51.444;7.460;2023-05-07T01:48:56;3.28;;;2.60;;
59054;SDS011;44845;51.444;7.460;2023-05-07T01:51:21;3.80;;;2.83;;
59054;SDS011;44845;51.444;7.460;2023-05-07T01:53:47;8.43;;;2.30;;
59054;SDS011;44845;51.444;7.460;2023-05-07T01:56:15;4.45;;;2.22;;
59054;SDS011;44845;51.444;7.460;2023-05-07T01:58:41;7.70;;;1.88;;
59054;SDS011;44845;51.444;7.460;2023-05-07T02:01:07;2.53;;;2.13;;
59054;SDS011;44845;51.444;7.460;2023-05-07T02:03:32;4.97;;;2.25;;
59054;SDS011;44845;51.444;7.460;2023-05-07T02:05:57;6.35;;;2.30;;
59054;SDS011;44845;51.444;7.460;2023-05-07T02:08:23;4.30;;;2.25;;
59054;SDS011;44845;51.444;7.460;2023-05-07T02:10:48;4.38;;;1.83;;
59054;SDS011;44845;51.444;7.460;2023-05-07T02:13:14;2.75;;;1.88;;
59054;SDS011;44845;51.444;7.460;2023-05-07T02:15:40;8.00;;;2.40;;
59054;SDS011;44845;51.444;7.460;2023-05-07T02:18:06;3.25;;;2.38;;
59054;SDS011;44845;51.444;7.460;2023-05-07T02:20:32;4.32;;;2.70;;
59054;SDS011;44845;51.444;7.460;2023-05-07T02:22:58;4.53;;;2.42;;
59054;SDS011;44845;51.444;7.460;2023-05-07T02:25:23;3.92;;;2.30;;
59054;SDS011;44845;51.444;7.460;2023-05-07T02:27:48;4.28;;;2.45;;
59054;SDS011;44845;51.444;7.460;2023-05-07T02:30:14;4.78;;;2.40;;
59054;SDS011;44845;51.444;7.460;2023-05-07T02:32:39;3.30;;;2.08;;
59054;SDS011;44845;51.444;7.460;2023-05-07T02:35:05;7.05;;;2.45;;
59054;SDS011;44845;51.444;7.460;2023-05-07T02:37:30;2.35;;;1.80;;
59054;SDS011;44845;51.444;7.460;2023-05-07T02:39:56;4.22;;;2.28;;
59054;SDS011;44845;51.444;7.460;2023-05-07T02:42:21;3.88;;;2.22;;
59054;SDS011;44845;51.444;7.460;2023-05-07T02:44:47;6.45;;;2.00;;
59054;SDS011;44845;51.444;7.460;2023-05-07T02:47:13;2.30;;;1.75;;
59054;SDS011;44845;51.444;7.460;2023-05-07T02:49:39;3.72;;;2.00;;
59054;SDS011;44845;51.444;7.460;2023-05-07T02:52:04;4.50;;;1.80;;
59054;SDS011;44845;51.444;7.460;2023-05-07T02:54:30;4.97;;;1.92;;
59054;SDS011;44845;51.444;7.460;2023-05-07T02:56:55;3.80;;;2.20;;
59054;SDS011;44845;51.444;7.460;2023-05-07T02:59:21;5.82;;;3.00;;
59054;SDS011;44845;51.444;7.460;2023-05-07T03:01:46;2.00;;;1.60;;
59054;SDS011;44845;51.444;7.460;2023-05-07T03:04:13;3.15;;;1.70;;
59054;SDS011;44845;51.444;7.460;2023-05-07T03:06:38;7.60;;;2.10;;
59054;SDS011;44845;51.444;7.460;2023-05-07T03:09:04;3.45;;;2.17;;
59054;SDS011;44845;51.444;7.460;2023-05-07T03:11:29;3.72;;;2.10;;
59054;SDS011;44845;51.444;7.460;2023-05-07T03:13:54;2.63;;;1.60;;
59054;SDS011;44845;51.444;7.460;2023-05-07T03:16:20;2.90;;;1.88;;
59054;SDS011;44845;51.444;7.460;2023-05-07T03:18:45;7.80;;;2.17;;
59054;SDS011;44845;51.444;7.460;2023-05-07T03:21:11;5.55;;;2.13;;
59054;SDS011;44845;51.444;7.460;2023-05-07T03:23:36;4.72;;;2.10;;
59054;SDS011;44845;51.444;7.460;2023-05-07T03:26:01;7.18;;;2.03;;
59054;SDS011;44845;51.444;7.460;2023-05-07T03:28:27;4.55;;;2.13;;
59054;SDS011;44845;51.444;7.460;2023-05-07T03:30:52;5.00;;;2.05;;
59054;SDS011;44845;51.444;7.460;2023-05-07T03:33:17;2.83;;;2.25;;
59054;SDS011;44845;51.444;7.460;2023-05-07T03:35:43;3.03;;;1.90;;
59054;SDS011;44845;51.444;7.460;2023-05-07T03:38:08;4.18;;;2.10;;
59054;SDS011;44845;51.444;7.460;2023-05-07T03:40:33;4.15;;;2.03;;
59054;SDS011;44845;51.444;7.460;2023-05-07T03:42:59;2.78;;;1.95;;
59054;SDS011;44845;51.444;7.460;2023-05-07T03:45:25;6.00;;;2.42;;
59054;SDS011;44845;51.444;7.460;2023-05-07T03:47:50;5.43;;;2.30;;
59054;SDS011;44845;51.444;7.460;2023-05-07T03:50:16;3.90;;;2.03;;
59054;SDS011;44845;51.444;7.460;2023-05-07T03:52:41;6.15;;;2.00;;
59054;SDS011;44845;51.444;7.460;2023-05-07T03:55:07;2.78;;;2.17;;
59054;SDS011;44845;51.444;7.460;2023-05-07T03:57:32;3.92;;;2.05;;
59054;SDS011;44845;51.444;7.460;2023-05-07T03:59:58;3.63;;;2.15;;
59054;SDS011;44845;51.444;7.460;2023-05-07T04:02:23;4.93;;;2.00;;
59054;SDS011;44845;51.444;7.460;2023-05-07T04:04:48;4.18;;;2.28;;
59054;SDS011;44845;51.444;7.460;2023-05-07T04:07:14;5.03;;;2.50;;
59054;SDS011;44845;51.444;7.460;2023-05-07T04:09:40;6.53;;;2.60;;
59054;SDS011;44845;51.444;7.460;2023-05-07T04:12:05;4.18;;;2.80;;
59054;SDS011;44845;51.444;7.460;2023-05-07T04:14:30;5.65;;;2.75;;
59054;SDS011;44845;51.444;7.460;2023-05-07T04:16:57;7.90;;;3.03;;
59054;SDS011;44845;51.444;7.460;2023-05-07T04:19:23;4.22;;;2.75;;
59054;SDS011;44845;51.444;7.460;2023-05-07T04:21:48;5.03;;;2.40;;
59054;SDS011;44845;51.444;7.460;2023-05-07T04:24:13;5.30;;;2.50;;
59054;SDS011;44845;51.444;7.460;2023-05-07T04:26:39;5.43;;;2.80;;
59054;SDS011;44845;51.444;7.460;2023-05-07T04:29:05;4.88;;;2.47;;
59054;SDS011;44845;51.444;7.460;2023-05-07T04:31:30;4.53;;;2.38;;
59054;SDS011;44845;51.444;7.460;2023-05-07T04:33:56;3.13;;;2.30;;
59054;SDS011;44845;51.444;7.460;2023-05-07T04:36:22;2.30;;;2.10;;
59054;SDS011;44845;51.444;7.460;2023-05-07T04:38:47;3.88;;;2.40;;
59054;SDS011;44845;51.444;7.460;2023-05-07T04:41:12;4.90;;;2.35;;
59054;SDS011;44845;51.444;7.460;2023-05-07T04:43:38;3.40;;;2.03;;
59054;SDS011;44845;51.444;7.460;2023-05-07T04:46:03;4.53;;;2.38;;
59054;SDS011;44845;51.444;7.460;2023-05-07T04:48:28;4.75;;;2.58;;
59054;SDS011;44845;51.444;7.460;2023-05-07T04:50:54;4.68;;;2.70;;
59054;SDS011;44845;51.444;7.460;2023-05-07T04:53:20;3.05;;;2.40;;
59054;SDS011;44845;51.444;7.460;2023-05-07T04:55:46;3.83;;;2.50;;
59054;SDS011;44845;51.444;7.460;2023-05-07T04:58:11;3.47;;;2.40;;
59054;SDS011;44845;51.444;7.460;2023-05-07T05:00:37;4.72;;;2.30;;
59054;SDS011;44845;51.444;7.460;2023-05-07T05:03:03;4.80;;;2.17;;
59054;SDS011;44845;51.444;7.460;2023-05-07T05:05:30;6.30;;;2.38;;
59054;SDS011;44845;51.444;7.460;2023-05-07T05:07:55;9.57;;;2.00;;
59054;SDS011;44845;51.444;7.460;2023-05-07T05:10:21;3.22;;;1.98;;
59054;SDS011;44845;51.444;7.460;2023-05-07T05:12:47;5.00;;;2.00;;
59054;SDS011;44845;51.444;7.460;2023-05-07T05:15:12;3.35;;;2.10;;
59054;SDS011;44845;51.444;7.460;2023-05-07T05:17:38;2.65;;;2.45;;
59054;SDS011;44845;51.444;7.460;2023-05-07T05:20:04;4.20;;;2.30;;
59054;SDS011;44845;51.444;7.460;2023-05-07T05:22:30;8.05;;;2.47;;
59054;SDS011;44845;51.444;7.460;2023-05-07T05:24:56;5.80;;;2.63;;
59054;SDS011;44845;51.444;7.460;2023-05-07T05:27:22;3.47;;;2.00;;
59054;SDS011;44845;51.444;7.460;2023-05-07T05:29:47;7.50;;;2.60;;
59054;SDS011;44845;51.444;7.460;2023-05-07T05:32:12;6.32;;;2.40;;
59054;SDS011;44845;51.444;7.460;2023-05-07T05:34:38;3.00;;;1.90;;
59054;SDS011;44845;51.444;7.460;2023-05-07T05:37:03;5.13;;;1.90;;
59054;SDS011;44845;51.444;7.460;2023-05-07T05:39:28;1.80;;;1.70;;
59054;SDS011;44845;51.444;7.460;2023-05-07T05:41:54;4.07;;;1.90;;
59054;SDS011;44845;51.444;7.460;2023-05-07T05:44:19;4.28;;;1.83;;
59054;SDS011;44845;51.444;7.460;2023-05-07T05:46:45;7.93;;;1.95;;
59054;SDS011;44845;51.444;7.460;2023-05-07T05:49:10;2.67;;;1.75;;
59054;SDS011;44845;51.444;7.460;2023-05-07T05:51:35;5.40;;;2.03;;
59054;SDS011;44845;51.444;7.460;2023-05-07T05:54:01;3.38;;;2.03;;
59054;SDS011;44845;51.444;7.460;2023-05-07T05:56:26;2.13;;;1.77;;
59054;SDS011;44845;51.444;7.460;2023-05-07T05:58:52;4.20;;;2.00;;
59054;SDS011;44845;51.444;7.460;2023-05-07T06:01:17;3.75;;;1.77;;
59054;SDS011;44845;51.444;7.460;2023-05-07T06:03:43;3.63;;;2.13;;
59054;SDS011;44845;51.444;7.460;2023-05-07T06:06:09;4.63;;;1.80;;
59054;SDS011;44845;51.444;7.460;2023-05-07T06:08:34;2.95;;;2.03;;
59054;SDS011;44845;51.444;7.460;2023-05-07T06:11:00;4.18;;;1.65;;
59054;SDS011;44845;51.444;7.460;2023-05-07T06:13:26;1.77;;;1.55;;
59054;SDS011;44845;51.444;7.460;2023-05-07T06:15:51;3.00;;;1.83;;
59054;SDS011;44845;51.444;7.460;2023-05-07T06:18:17;5.57;;;1.80;;
59054;SDS011;44845;51.444;7.460;2023-05-07T06:20:42;7.35;;;1.95;;
59054;SDS011;44845;51.444;7.460;2023-05-07T06:23:07;2.80;;;1.80;;
59054;SDS011;44845;51.444;7.460;2023-05-07T06:25:33;3.80;;;1.48;;
59054;SDS011;44845;51.444;7.460;2023-05-07T06:27:58;3.28;;;2.03;;
59054;SDS011;44845;51.444;7.460;2023-05-07T06:30:23;3.20;;;1.92;;
59054;SDS011;44845;51.444;7.460;2023-05-07T06:32:49;5.20;;;1.80;;
59054;SDS011;44845;51.444;7.460;2023-05-07T06:35:14;5.13;;;1.67;;
59054;SDS011;44845;51.444;7.460;2023-05-07T06:37:40;3.22;;;1.38;;
59054;SDS011;44845;51.444;7.460;2023-05-07T06:40:07;2.88;;;1.55;;
59054;SDS011;44845;51.444;7.460;2023-05-07T06:42:33;2.38;;;1.73;;
59054;SDS011;44845;51.444;7.460;2023-05-07T06:44:59;2.58;;;1.67;;
59054;SDS011;44845;51.444;7.460;2023-05-07T06:47:24;4.57;;;1.65;;
59054;SDS011;44845;51.444;7.460;2023-05-07T06:49:50;5.35;;;1.70;;
59054;SDS011;44845;51.444;7.460;2023-05-07T06:52:15;3.10;;;1.60;;
59054;SDS011;44845;51.444;7.460;2023-05-07T06:54:40;3.15;;;1.63;;
59054;SDS011;44845;51.444;7.460;2023-05-07T06:57:06;1.95;;;1.50;;
59054;SDS011;44845;51.444;7.460;2023-05-07T06:59:32;5.22;;;1.80;;
59054;SDS011;44845;51.444;7.460;2023-05-07T07:01:57;4.00;;;1.50;;
59054;SDS011;44845;51.444;7.460;2023-05-07T07:04:22;7.80;;;1.90;;
59054;SDS011;44845;51.444;7.460;2023-05-07T07:06:49;2.83;;;1.55;;
59054;SDS011;44845;51.444;7.460;2023-05-07T07:09:16;3.67;;;1.60;;
59054;SDS011;44845;51.444;7.460;2023-05-07T07:11:41;3.38;;;1.60;;
59054;SDS011;44845;51.444;7.460;2023-05-07T07:14:07;4.10;;;1.80;;
59054;SDS011;44845;51.444;7.460;2023-05-07T07:16:32;3.65;;;1.40;;
59054;SDS011;44845;51.444;7.460;2023-05-07T07:18:57;2.47;;;1.67;;
59054;SDS011;44845;51.444;7.460;2023-05-07T07:21:23;2.03;;;1.70;;
59054;SDS011;44845;51.444;7.460;2023-05-07T07:23:48;4.45;;;1.70;;
59054;SDS011;44845;51.444;7.460;2023-05-07T07:26:13;4.80;;;1.77;;
59054;SDS011;44845;51.444;7.460;2023-05-07T07:28:42;2.25;;;1.60;;
59054;SDS011;44845;51.444;7.460;2023-05-07T07:31:11;3.55;;;1.65;;
59054;SDS011;44845;51.444;7.460;2023-05-07T07:33:37;2.03;;;1.67;;
59054;SDS011;44845;51.444;7.460;2023-05-07T07:36:02;3.88;;;1.60;;
59054;SDS011;44845;51.444;7.460;2023-05-07T07:38:28;2.58;;;1.90;;
59054;SDS011;44845;51.444;7.460;2023-05-07T07:40:53;3.00;;;1.38;;
59054;SDS011;44845;51.444;7.460;2023-05-07T07:43:18;3.20;;;1.73;;
59054;SDS011;44845;51.444;7.460;2023-05-07T07:45:44;4.47;;;1.70;;
59054;SDS011;44845;51.444;7.460;2023-05-07T07:48:10;3.15;;;1.60;;
59054;SDS011;44845;51.444;7.460;2023-05-07T07:50:36;2.25;;;1.40;;
59054;SDS011;44845;51.444;7.460;2023-05-07T07:53:01;1.42;;;1.33;;
59054;SDS011;44845;51.444;7.460;2023-05-07T07:55:27;4.55;;;1.58;;
59054;SDS011;44845;51.444;7.460;2023-05-07T07:57:52;2.05;;;1.45;;
59054;SDS011;44845;51.444;7.460;2023-05-07T08:00:17;4.28;;;1.50;;
59054;SDS011;44845;51.444;7.460;2023-05-07T08:02:43;4.15;;;1.80;;
59054;SDS011;44845;51.444;7.460;2023-05-07T08:05:08;3.10;;;1.58;;
59054;SDS011;44845;51.444;7.460;2023-05-07T08:07:34;2.22;;;1.60;;
59054;SDS011;44845;51.444;7.460;2023-05-07T08:09:59;1.75;;;1.50;;
59054;SDS011;44845;51.444;7.460;2023-05-07T08:12:24;2.15;;;1.65;;
59054;SDS011;44845;51.444;7.460;2023-05-07T08:14:50;1.83;;;1.33;;
59054;SDS011;44845;51.444;7.460;2023-05-07T08:17:15;4.38;;;1.63;;
59054;SDS011;44845;51.444;7.460;2023-05-07T08:19:41;2.08;;;1.45;;
59054;SDS011;44845;51.444;7.460;2023-05-07T08:22:07;6.30;;;1.80;;
59054;SDS011;44845;51.444;7.460;2023-05-07T08:24:33;1.52;;;1.30;;
59054;SDS011;44845;51.444;7.460;2023-05-07T08:26:58;2.30;;;1.80;;
59054;SDS011;44845;51.444;7.460;2023-05-07T08:29:24;3.67;;;1.80;;
59054;SDS011;44845;51.444;7.460;2023-05-07T08:31:49;3.63;;;1.70;;
59054;SDS011;44845;51.444;7.460;2023-05-07T08:34:14;1.42;;;1.23;;
59054;SDS011;44845;51.444;7.460;2023-05-07T08:36:40;3.78;;;1.77;;
59054;SDS011;44845;51.444;7.460;2023-05-07T08:39:06;3.67;;;1.77;;
59054;SDS011;44845;51.444;7.460;2023-05-07T08:41:32;3.30;;;1.38;;
59054;SDS011;44845;51.444;7.460;2023-05-07T08:43:58;1.48;;;1.20;;
59054;SDS011;44845;51.444;7.460;2023-05-07T08:46:25;3.28;;;1.27;;
59054;SDS011;44845;51.444;7.460;2023-05-07T08:48:51;5.22;;;1.92;;
59054;SDS011;44845;51.444;7.460;2023-05-07T08:51:20;3.97;;;1.40;;
59054;SDS011;44845;51.444;7.460;2023-05-07T08:53:46;4.45;;;1.52;;
59054;SDS011;44845;51.444;7.460;2023-05-07T08:56:15;2.55;;;1.50;;
59054;SDS011;44845;51.444;7.460;2023-05-07T08:58:44;3.10;;;1.75;;
59054;SDS011;44845;51.444;7.460;2023-05-07T09:01:12;3.78;;;2.20;;
59054;SDS011;44845;51.444;7.460;2023-05-07T09:03:39;5.53;;;2.38;;
59054;SDS011;44845;51.444;7.460;2023-05-07T09:06:05;2.13;;;1.98;;
59054;SDS011;44845;51.444;7.460;2023-05-07T09:08:32;8.25;;;3.28;;
59054;SDS011;44845;51.444;7.460;2023-05-07T09:10:58;6.22;;;3.20;;
59054;SDS011;44845;51.444;7.460;2023-05-07T09:13:24;4.00;;;3.10;;
59054;SDS011;44845;51.444;7.460;2023-05-07T09:15:49;5.03;;;3.00;;
59054;SDS011;44845;51.444;7.460;2023-05-07T09:18:15;3.97;;;2.80;;
59054;SDS011;44845;51.444;7.460;2023-05-07T09:20:40;5.05;;;3.00;;
59054;SDS011;44845;51.444;7.460;2023-05-07T09:23:06;3.38;;;3.03;;
59054;SDS011;44845;51.444;7.460;2023-05-07T09:25:32;6.10;;;3.25;;
59054;SDS011;44845;51.444;7.460;2023-05-07T09:27:59;3.70;;;3.40;;
59054;SDS011;44845;51.444;7.460;2023-05-07T09:30:28;4.40;;;3.72;;
59054;SDS011;44845;51.444;7.460;2023-05-07T09:32:55;8.43;;;3.60;;
59054;SDS011;44845;51.444;7.460;2023-05-07T09:35:21;5.30;;;4.80;;
59054;SDS011;44845;51.444;7.460;2023-05-07T09:37:49;4.50;;;3.67;;
59054;SDS011;44845;51.444;7.460;2023-05-07T09:40:21;8.52;;;3.90;;
59054;SDS011;44845;51.444;7.460;2023-05-07T09:42:48;5.38;;;4.30;;
59054;SDS011;44845;51.444;7.460;2023-05-07T09:45:15;8.45;;;6.00;;
59054;SDS011;44845;51.444;7.460;2023-05-07T09:47:42;8.25;;;6.00;;
59054;SDS011;44845;51.444;7.460;2023-05-07T09:50:09;8.40;;;6.85;;
59054;SDS011;44845;51.444;7.460;2023-05-07T09:52:37;8.57;;;6.93;;
59054;SDS011;44845;51.444;7.460;2023-05-07T09:55:05;8.43;;;7.50;;
59054;SDS011;44845;51.444;7.460;2023-05-07T09:57:32;9.35;;;7.85;;
59054;SDS011;44845;51.444;7.460;2023-05-07T09:59:59;9.48;;;8.20;;
59054;SDS011;44845;51.444;7.460;2023-05-07T10:02:29;9.77;;;8.68;;
59054;SDS011;44845;51.444;7.460;2023-05-07T10:04:56;9.85;;;8.60;;
59054;SDS011;44845;51.444;7.460;2023-05-07T10:07:23;9.43;;;8.00;;
59054;SDS011;44845;51.444;7.460;2023-05-07T10:09:50;9.90;;;8.10;;
59054;SDS011;44845;51.444;7.460;2023-05-07T10:12:16;8.88;;;7.80;;
59054;SDS011;44845;51.444;7.460;2023-05-07T10:14:42;11.27;;;8.25;;
59054;SDS011;44845;51.444;7.460;2023-05-07T10:17:09;8.50;;;7.30;;
59054;SDS011;44845;51.444;7.460;2023-05-07T10:19:36;11.73;;;7.88;;
59054;SDS011;44845;51.444;7.460;2023-05-07T10:22:03;4.90;;;4.43;;
59054;SDS011;44845;51.444;7.460;2023-05-07T10:24:33;10.18;;;5.80;;
59054;SDS011;44845;51.444;7.460;2023-05-07T10:27:02;10.18;;;5.90;;
59054;SDS011;44845;51.444;7.460;2023-05-07T10:29:35;8.00;;;5.65;;
59054;SDS011;44845;51.444;7.460;2023-05-07T10:34:58;15.55;;;7.18;;
59054;SDS011;44845;51.444;7.460;2023-05-07T10:37:28;7.57;;;5.50;;
59054;SDS011;44845;51.444;7.460;2023-05-07T10:39:54;10.60;;;6.47;;
59054;SDS011;44845;51.444;7.460;2023-05-07T10:42:19;6.60;;;5.20;;
59054;SDS011;44845;51.444;7.460;2023-05-07T10:44:45;7.13;;;5.72;;
59054;SDS011;44845;51.444;7.460;2023-05-07T10:47:11;7.22;;;6.00;;
59054;SDS011;44845;51.444;7.460;2023-05-07T10:52:16;7.43;;;5.38;;
59054;SDS011;44845;51.444;7.460;2023-05-07T10:54:43;6.00;;;5.13;;
59054;SDS011;44845;51.444;7.460;2023-05-07T10:59:56;6.28;;;5.38;;
59054;SDS011;44845;51.444;7.460;2023-05-07T11:02:22;5.18;;;4.32;;
59054;SDS011;44845;51.444;7.460;2023-05-07T11:05:33;5.20;;;4.65;;
59054;SDS011;44845;51.444;7.460;2023-05-07T11:07:57;10.02;;;4.80;;
59054;SDS011;44845;51.444;7.460;2023-05-07T11:13:44;7.78;;;4.43;;
59054;SDS011;44845;51.444;7.460;2023-05-07T11:16:16;5.25;;;4.30;;
59054;SDS011;44845;51.444;7.460;2023-05-07T11:18:52;5.65;;;5.13;;
59054;SDS011;44845;51.444;7.460;2023-05-07T11:21:36;6.53;;;5.82;;
59054;SDS011;44845;51.444;7.460;2023-05-07T11:24:06;9.00;;;5.82;;
59054;SDS011;44845;51.444;7.460;2023-05-07T11:26:45;6.18;;;4.70;;
59054;SDS011;44845;51.444;7.460;2023-05-07T11:29:16;6.10;;;4.70;;
59054;SDS011;44845;51.444;7.460;2023-05-07T11:31:48;5.25;;;4.72;;
59054;SDS011;44845;51.444;7.460;2023-05-07T11:34:14;7.80;;;5.03;;
59054;SDS011;44845;51.444;7.460;2023-05-07T11:36:45;7.03;;;6.00;;
59054;SDS011;44845;51.444;7.460;2023-05-07T11:39:28;6.50;;;5.43;;
59054;SDS011;44845;51.444;7.460;2023-05-07T11:41:55;9.10;;;6.57;;
59054;SDS011;44845;51.444;7.460;2023-05-07T11:44:20;9.68;;;6.20;;
59054;SDS011;44845;51.444;7.460;2023-05-07T11:46:46;8.90;;;5.95;;
59054;SDS011;44845;51.444;7.460;2023-05-07T11:49:11;8.88;;;6.03;;
59054;SDS011;44845;51.444;7.460;2023-05-07T11:51:37;9.80;;;6.97;;
59054;SDS011;44845;51.444;7.460;2023-05-07T11:54:03;6.70;;;5.93;;
59054;SDS011;44845;51.444;7.460;2023-05-07T11:56:33;9.32;;;6.50;;
59054;SDS011;44845;51.444;7.460;2023-05-07T11:59:00;9.75;;;6.13;;
59054;SDS011;44845;51.444;7.460;2023-05-07T12:01:26;9.77;;;5.65;;
59054;SDS011;44845;51.444;7.460;2023-05-07T12:03:51;6.28;;;5.05;;
59054;SDS011;44845;51.444;7.460;2023-05-07T12:06:17;8.13;;;5.15;;
59054;SDS011;44845;51.444;7.460;2023-05-07T12:08:43;6.13;;;5.22;;
59054;SDS011;44845;51.444;7.460;2023-05-07T12:11:13;6.95;;;5.03;;
59054;SDS011;44845;51.444;7.460;2023-05-07T12:13:42;9.07;;;5.03;;
59054;SDS011;44845;51.444;7.460;2023-05-07T12:16:07;5.35;;;4.32;;
59054;SDS011;44845;51.444;7.460;2023-05-07T12:18:34;6.35;;;5.75;;
59054;SDS011;44845;51.444;7.460;2023-05-07T12:21:01;8.30;;;5.50;;
59054;SDS011;44845;51.444;7.460;2023-05-07T12:23:27;8.02;;;5.40;;
59054;SDS011;44845;51.444;7.460;2023-05-07T12:25:53;5.97;;;5.38;;
59054;SDS011;44845;51.444;7.460;2023-05-07T12:28:19;7.15;;;5.40;;
59054;SDS011;44845;51.444;7.460;2023-05-07T12:30:45;9.77;;;5.72;;
59054;SDS011;44845;51.444;7.460;2023-05-07T12:33:12;6.57;;;5.07;;
59054;SDS011;44845;51.444;7.460;2023-05-07T12:35:42;9.23;;;4.90;;
59054;SDS011;44845;51.444;7.460;2023-05-07T12:38:12;8.23;;;5.00;;
59054;SDS011;44845;51.444;7.460;2023-05-07T12:40:45;6.30;;;4.32;;
59054;SDS011;44845;51.444;7.460;2023-05-07T12:43:25;6.53;;;5.18;;
59054;SDS011;44845;51.444;7.460;2023-05-07T12:45:54;4.38;;;3.88;;
59054;SDS011;44845;51.444;7.460;2023-05-07T12:48:21;6.53;;;4.53;;
59054;SDS011;44845;51.444;7.460;2023-05-07T12:50:51;4.43;;;3.90;;
59054;SDS011;44845;51.444;7.460;2023-05-07T12:53:19;6.45;;;4.32;;
59054;SDS011;44845;51.444;7.460;2023-05-07T12:55:47;7.75;;;5.00;;
59054;SDS011;44845;51.444;7.460;2023-05-07T12:58:14;4.93;;;4.43;;
59054;SDS011;44845;51.444;7.460;2023-05-07T13:00:43;6.18;;;4.40;;
59054;SDS011;44845;51.444;7.460;2023-05-07T13:03:10;6.20;;;4.30;;
59054;SDS011;44845;51.444;7.460;2023-05-07T13:05:36;6.53;;;4.68;;
59054;SDS011;44845;51.444;7.460;2023-05-07T13:08:01;5.22;;;4.63;;
59054;SDS011;44845;51.444;7.460;2023-05-07T13:10:26;6.50;;;5.72;;
59054;SDS011;44845;51.444;7.460;2023-05-07T13:12:52;8.15;;;5.82;;
59054;SDS011;44845;51.444;7.460;2023-05-07T13:15:18;7.32;;;5.22;;
59054;SDS011;44845;51.444;7.460;2023-05-07T13:17:44;9.35;;;5.30;;
59054;SDS011;44845;51.444;7.460;2023-05-07T13:20:10;6.32;;;5.47;;
59054;SDS011;44845;51.444;7.460;2023-05-07T13:22:36;9.32;;;5.95;;
59054;SDS011;44845;51.444;7.460;2023-05-07T13:25:02;9.13;;;6.22;;
59054;SDS011;44845;51.444;7.460;2023-05-07T13:27:27;6.80;;;6.10;;
59054;SDS011;44845;51.444;7.460;2023-05-07T13:29:53;7.65;;;6.22;;
59054;SDS011;44845;51.444;7.460;2023-05-07T13:32:18;9.90;;;6.25;;
59054;SDS011;44845;51.444;7.460;2023-05-07T13:34:43;6.72;;;5.70;;
59054;SDS011;44845;51.444;7.460;2023-05-07T13:37:09;6.75;;;5.65;;
59054;SDS011;44845;51.444;7.460;2023-05-07T13:39:34;7.72;;;5.30;;
59054;SDS011;44845;51.444;7.460;2023-05-07T13:41:59;5.43;;;4.93;;
59054;SDS011;44845;51.444;7.460;2023-05-07T13:44:25;6.20;;;4.95;;
59054;SDS011;44845;51.444;7.460;2023-05-07T13:46:51;7.05;;;5.35;;
59054;SDS011;44845;51.444;7.460;2023-05-07T13:49:16;7.28;;;6.50;;
59054;SDS011;44845;51.444;7.460;2023-05-07T13:51:42;8.27;;;6.70;;
59054;SDS011;44845;51.444;7.460;2023-05-07T13:54:07;8.05;;;6.55;;
59054;SDS011;44845;51.444;7.460;2023-05-07T13:56:32;9.18;;;7.25;;
59054;SDS011;44845;51.444;7.460;2023-05-07T13:58:58;7.13;;;6.28;;
59054;SDS011;44845;51.444;7.460;2023-05-07T14:01:23;7.85;;;6.18;;
59054;SDS011;44845;51.444;7.460;2023-05-07T14:03:49;7.75;;;6.53;;
59054;SDS011;44845;51.444;7.460;2023-05-07T14:06:14;7.57;;;6.72;;
59054;SDS011;44845;51.444;7.460;2023-05-07T14:08:39;9.63;;;6.30;;
59054;SDS011;44845;51.444;7.460;2023-05-07T14:11:07;8.65;;;6.20;;
59054;SDS011;44845;51.444;7.460;2023-05-07T14:13:32;12.00;;;6.63;;
59054;SDS011;44845;51.444;7.460;2023-05-07T14:15:59;6.90;;;6.20;;
59054;SDS011;44845;51.444;7.460;2023-05-07T14:18:25;6.20;;;5.60;;
59054;SDS011;44845;51.444;7.460;2023-05-07T14:20:51;7.00;;;5.95;;
59054;SDS011;44845;51.444;7.460;2023-05-07T14:23:16;6.13;;;5.32;;
59054;SDS011;44845;51.444;7.460;2023-05-07T14:25:44;7.45;;;5.55;;
59054;SDS011;44845;51.444;7.460;2023-05-07T14:28:11;5.68;;;5.03;;
59054;SDS011;44845;51.444;7.460;2023-05-07T14:30:36;6.03;;;4.47;;
59054;SDS011;44845;51.444;7.460;2023-05-07T14:33:01;6.38;;;4.57;;
59054;SDS011;44845;51.444;7.460;2023-05-07T14:35:26;5.65;;;4.50;;
59054;SDS011;44845;51.444;7.460;2023-05-07T14:37:52;4.68;;;4.13;;
59054;SDS011;44845;51.444;7.460;2023-05-07T14:40:17;9.27;;;4.50;;
59054;SDS011;44845;51.444;7.460;2023-05-07T14:42:42;5.35;;;4.30;;
59054;SDS011;44845;51.444;7.460;2023-05-07T14:45:08;10.52;;;4.10;;
59054;SDS011;44845;51.444;7.460;2023-05-07T14:47:34;7.40;;;4.10;;
59054;SDS011;44845;51.444;7.460;2023-05-07T14:49:59;5.47;;;3.95;;
59054;SDS011;44845;51.444;7.460;2023-05-07T14:52:25;7.25;;;3.97;;
59054;SDS011;44845;51.444;7.460;2023-05-07T14:54:51;4.25;;;3.58;;